createdAt,value
2019-06-27T00:06:44.822Z,94112.48
2019-06-27T00:16:48.011Z,94116.47
2019-06-27T00:26:57.287Z,94114.78
2019-06-27T00:36:57.988Z,94117.14
2019-06-27T00:47:00.539Z,94108.26
2019-06-27T00:57:13.386Z,94107.16
2019-06-27T01:07:10.458Z,94111.58
2019-06-27T01:17:13.257Z,94102.17
2019-06-27T01:27:29.503Z,94090.19
2019-06-27T01:37:26.990Z,94081.74
2019-06-27T01:47:29.541Z,94072.78
2019-06-27T01:57:46.011Z,94071.59
2019-06-27T02:07:39.748Z,94068.39
2019-06-27T02:17:43.836Z,94063.23
2019-06-27T02:28:02.137Z,94063.15
2019-06-27T02:37:50.966Z,94054.16
2019-06-27T02:47:53.622Z,94064.22
2019-06-27T02:57:57.277Z,94058.47
2019-06-27T03:07:59.828Z,94059.84
2019-06-27T03:18:04.418Z,94049.69
2019-06-27T03:28:06.971Z,94052.23
2019-06-27T03:38:10.883Z,94052.20
2019-06-27T03:48:13.523Z,94060.19
2019-06-27T03:58:16.849Z,94061.77
2019-06-27T04:08:23.107Z,94056.41
2019-06-27T04:18:26.988Z,94044.33
2019-06-27T04:28:29.873Z,94036.52
2019-06-27T04:38:33.664Z,94039.81
2019-06-27T04:48:36.207Z,94047.58
2019-06-27T04:58:39.620Z,94044.73
2019-06-27T05:08:43.546Z,94053.96
2019-06-27T05:18:48.440Z,94052.14
2019-06-27T05:28:52.342Z,94041.53
2019-06-27T05:38:56.160Z,94045.63
2019-06-27T05:48:58.700Z,94046.17
2019-06-27T05:59:03.221Z,94040.34
2019-06-27T06:09:07.206Z,94035.75
2019-06-27T06:19:10.610Z,94028.52
2019-06-27T06:29:16.648Z,94024.16
2019-06-27T06:39:20.008Z,94024.15
2019-06-27T06:49:22.533Z,94016.02
2019-06-27T06:59:25.148Z,94012.00
2019-06-27T07:09:27.668Z,94003.61
2019-06-27T07:19:31.266Z,93998.60
2019-06-27T07:29:34.930Z,93997.53
2019-06-27T07:39:37.495Z,93985.13
2019-06-27T07:49:40.962Z,93980.45
2019-06-27T07:59:46.930Z,93972.74
2019-06-27T08:09:50.750Z,93963.18
2019-06-27T08:19:54.390Z,93951.53
2019-06-27T08:29:58.835Z,93944.83
2019-06-27T08:40:02.390Z,93935.84
2019-06-27T08:50:06.244Z,93927.09
2019-06-27T09:00:13.553Z,93923.76
2019-06-27T09:10:16.343Z,93925.05
2019-06-27T09:20:19.899Z,93902.89
2019-06-27T09:30:23.138Z,93896.99
2019-06-27T09:40:26.127Z,93888.09
2019-06-27T09:50:28.788Z,93890.00
2019-06-27T10:00:34.512Z,93875.45
2019-06-27T10:10:37.487Z,93858.91
2019-06-27T10:20:41.451Z,93857.14
2019-06-27T10:30:49.075Z,93845.43
2019-06-27T10:40:51.990Z,93830.94
2019-06-27T10:50:57.552Z,93817.45
2019-06-27T11:01:00.143Z,93804.40
2019-06-27T11:11:02.780Z,93790.17
2019-06-27T11:21:05.378Z,93780.98
2019-06-27T11:31:07.912Z,93757.69
2019-06-27T11:41:11.249Z,93759.06
2019-06-27T11:51:13.802Z,93745.88
2019-06-27T12:01:17.226Z,93730.77
2019-06-27T12:11:20.303Z,93720.75
2019-06-27T12:21:23.077Z,93709.02
2019-06-27T12:31:25.600Z,93703.24
2019-06-27T12:41:30.496Z,93693.44
2019-06-27T12:51:33.043Z,93680.65
2019-06-27T13:01:37.410Z,93663.06
2019-06-27T13:11:40.789Z,93656.87
2019-06-27T13:21:43.394Z,93644.97
2019-06-27T13:31:45.942Z,93634.14
2019-06-27T13:41:50.242Z,93617.49
2019-06-27T13:51:53.545Z,93605.84
2019-06-27T14:01:56.872Z,93598.49
2019-06-27T14:12:01.978Z,93583.73
2019-06-27T14:22:06.253Z,93570.22
2019-06-27T14:32:09.035Z,93552.00
2019-06-27T14:42:14.364Z,93537.53
2019-06-27T14:52:17.262Z,93526.17
2019-06-27T15:02:20.803Z,93517.45
2019-06-27T15:12:24.521Z,93504.14
2019-06-27T15:22:27.071Z,93500.22
2019-06-27T15:32:29.920Z,93492.20
2019-06-27T15:42:33.250Z,93483.78
2019-06-27T15:52:35.793Z,93470.47
2019-06-27T16:02:39.321Z,93464.73
2019-06-27T16:12:42.166Z,93473.62
2019-06-27T16:22:45.477Z,93462.59
2019-06-27T16:32:48.000Z,93466.00
2019-06-27T16:42:51.988Z,93468.27
2019-06-27T16:52:55.475Z,93470.33
2019-06-27T17:02:59.138Z,93468.07
2019-06-27T17:13:01.797Z,93455.45
2019-06-27T17:23:05.971Z,93458.17
2019-06-27T17:33:08.510Z,93448.30
2019-06-27T17:43:14.939Z,93452.45
2019-06-27T17:53:19.468Z,93455.78
2019-06-27T18:03:23.777Z,93455.83
2019-06-27T18:13:26.935Z,93472.16
2019-06-27T18:23:31.067Z,93464.00
2019-06-27T18:33:34.461Z,93471.83
2019-06-27T18:43:38.467Z,93492.30
2019-06-27T18:53:41.792Z,93505.78
2019-06-27T19:03:45.477Z,93523.13
2019-06-27T19:13:48.811Z,93527.25
2019-06-27T19:23:58.414Z,93537.41
2019-06-27T19:34:00.991Z,93542.73
2019-06-27T19:44:04.591Z,93541.05
2019-06-27T19:54:07.118Z,93548.80
2019-06-27T20:04:11.615Z,93528.23
2019-06-27T20:14:14.153Z,93527.61
2019-06-27T20:24:17.254Z,93543.94
2019-06-27T20:34:21.099Z,93533.85
2019-06-27T20:44:25.854Z,93528.87
2019-06-27T20:54:29.519Z,93521.48
2019-06-27T21:04:32.969Z,93545.16
2019-06-27T21:14:36.187Z,93553.63
2019-06-27T21:24:38.757Z,93565.81
2019-06-27T21:34:41.658Z,93564.67
2019-06-27T21:44:46.378Z,93547.95
2019-06-27T21:54:48.915Z,93557.44
2019-06-27T22:04:51.493Z,93570.38
2019-06-27T22:14:54.852Z,93565.66
2019-06-27T22:24:59.620Z,93555.60
2019-06-27T22:35:03.385Z,93547.02
2019-06-27T22:45:13.853Z,93516.06
2019-06-27T22:55:19.685Z,93499.82
2019-06-27T23:05:23.056Z,93474.40
2019-06-27T23:15:25.770Z,93459.15
2019-06-27T23:25:30.691Z,93449.60
2019-06-27T23:35:34.072Z,93439.66
2019-06-27T23:45:37.373Z,93429.17
2019-06-27T23:55:39.954Z,93414.88
